Time;durP1;ratioP1;P1;durP2;ratioP2;P2;SDS_P1;SDS_P2;PMS_P1;PMS_P2;Temp;Humidity;BMP_temperature;BMP_pressure;BME280_temperature;BME280_humidity;BME280_pressure;Samples;Min_cycle;Max_cycle;Signal;HPM_P1;HPM_P2
2022/07/25 00:00:38;;;;;;;8.30;6.38;;;;;;;27.23;50.90;100911.56;5032650;28;20420;-82
2022/07/25 00:03:05;;;;;;;6.35;5.72;;;;;;;27.25;51.28;100909.50;5034070;28;20496;-82
2022/07/25 00:05:37;;;;;;;6.50;5.90;;;;;;;27.26;50.70;100908.44;5034408;28;20055;-81
2022/07/25 00:08:04;;;;;;;6.85;6.18;;;;;;;27.27;50.77;100908.28;5032706;28;20408;-80
2022/07/25 00:10:32;;;;;;;5.90;5.30;;;;;;;27.29;50.94;100910.81;5031744;28;20057;-81
2022/07/25 00:12:59;;;;;;;7.10;6.35;;;;;;;27.31;50.98;100912.34;5033767;28;20504;-81
2022/07/25 00:15:26;;;;;;;6.47;5.65;;;;;;;27.31;50.79;100906.06;5033215;28;20049;-81
2022/07/25 00:17:54;;;;;;;6.78;5.55;;;;;;;27.32;50.76;100903.16;5033369;28;20041;-81
2022/07/25 00:20:21;;;;;;;6.63;5.90;;;;;;;27.34;50.87;100908.38;5033623;28;20056;-80
2022/07/25 00:22:48;;;;;;;6.35;5.75;;;;;;;27.34;50.75;100908.38;5033038;28;20466;-81
2022/07/25 00:25:16;;;;;;;8.30;6.10;;;;;;;27.35;51.23;100904.66;5032527;28;20057;-83
2022/07/25 00:27:43;;;;;;;6.85;6.13;;;;;;;27.36;50.95;100907.19;5033205;28;20116;-84
2022/07/25 00:30:11;;;;;;;7.00;5.88;;;;;;;27.37;51.06;100902.59;5033822;28;20124;-84
2022/07/25 00:32:41;;;;;;;6.18;5.50;;;;;;;27.40;50.88;100898.66;5033794;28;20053;-83
2022/07/25 00:35:08;;;;;;;6.50;5.90;;;;;;;27.40;50.96;100895.94;5032062;28;20049;-82
2022/07/25 00:37:35;;;;;;;6.38;5.78;;;;;;;27.41;51.00;100906.63;5033125;28;20383;-83
2022/07/25 00:40:03;;;;;;;7.13;6.22;;;;;;;27.42;50.94;100896.59;5033401;28;20042;-82
2022/07/25 00:42:31;;;;;;;5.72;5.22;;;;;;;27.43;51.04;100901.00;5033007;28;20041;-83
2022/07/25 00:44:59;;;;;;;7.03;6.32;;;;;;;27.44;51.02;100902.72;5033283;28;20433;-83
2022/07/25 00:47:26;;;;;;;6.35;5.75;;;;;;;27.46;51.03;100903.34;5033411;28;20053;-83
2022/07/25 00:49:54;;;;;;;6.70;6.10;;;;;;;27.45;50.84;100907.94;5033855;28;20381;-82
2022/07/25 00:52:22;;;;;;;7.32;6.28;;;;;;;27.47;51.01;100897.75;5033326;28;20045;-83
2022/07/25 00:54:50;;;;;;;6.63;5.93;;;;;;;27.49;50.93;100903.00;5032304;28;20049;-83
2022/07/25 00:57:17;;;;;;;7.35;6.65;;;;;;;27.49;50.96;100897.56;5037662;28;20058;-83
2022/07/25 00:59:45;;;;;;;7.70;6.00;;;;;;;27.49;50.91;100892.97;5038051;28;20519;-83
2022/07/25 01:02:12;;;;;;;6.13;5.47;;;;;;;27.49;51.03;100890.25;5037706;28;20038;-83
2022/07/25 01:04:40;;;;;;;6.35;5.75;;;;;;;27.51;51.14;100896.34;5036294;28;20056;-83
2022/07/25 01:07:07;;;;;;;7.13;5.88;;;;;;;27.52;51.12;100897.19;5036613;28;20045;-83
2022/07/25 01:09:36;;;;;;;6.70;6.15;;;;;;;27.53;50.99;100893.44;5037223;28;20489;-83
2022/07/25 01:12:03;;;;;;;6.85;6.25;;;;;;;27.54;50.52;100889.69;5036382;28;20044;-83
2022/07/25 01:14:37;;;;;;;6.22;5.63;;;;;;;27.55;50.46;100894.13;5035646;28;20064;-83
2022/07/25 01:17:05;;;;;;;5.95;5.35;;;;;;;27.55;50.57;100891.41;5036941;28;20052;-83
2022/07/25 01:19:32;;;;;;;6.50;5.90;;;;;;;27.56;50.97;100891.19;5037457;28;20049;-83
2022/07/25 01:21:59;;;;;;;7.28;6.20;;;;;;;27.57;51.15;100889.31;5037864;28;20049;-85
2022/07/25 01:24:28;;;;;;;6.43;5.82;;;;;;;27.58;50.86;100893.72;5037210;28;20060;-83
2022/07/25 01:26:55;;;;;;;7.57;6.53;;;;;;;27.59;50.75;100884.56;5036640;28;20049;-83
2022/07/25 01:29:22;;;;;;;6.22;5.63;;;;;;;27.59;50.64;100884.56;5036552;28;20048;-83
2022/07/25 01:31:50;;;;;;;7.90;5.55;;;;;;;27.60;50.84;100888.97;5036491;28;20041;-84
2022/07/25 01:34:17;;;;;;;6.85;6.07;;;;;;;27.60;51.18;100881.63;5018378;28;20049;-83
2022/07/25 01:36:45;;;;;;;6.65;5.93;;;;;;;27.61;50.88;100882.47;5036199;28;20052;-83
2022/07/25 01:39:12;;;;;;;5.88;5.28;;;;;;;27.61;51.14;100877.03;5019240;28;20064;-82
2022/07/25 01:41:40;;;;;;;6.72;5.78;;;;;;;27.63;50.83;100882.28;5036122;28;20485;-82
2022/07/25 01:44:07;;;;;;;6.30;5.70;;;;;;;27.61;51.01;100877.88;5036138;28;20507;-82
2022/07/25 01:46:35;;;;;;;6.63;6.03;;;;;;;27.64;50.67;100884.00;5036104;28;20068;-82
2022/07/25 01:49:03;;;;;;;5.70;5.20;;;;;;;27.65;50.95;100877.53;5036777;28;20421;-82
2022/07/25 01:51:31;;;;;;;6.20;5.70;;;;;;;27.64;50.85;100875.84;5036550;28;20393;-82
2022/07/25 01:53:58;;;;;;;5.90;5.35;;;;;;;27.65;51.21;100880.25;5036142;28;20045;-82
2022/07/25 01:56:25;;;;;;;6.32;5.72;;;;;;;27.66;51.20;100880.03;5036089;28;20045;-82
2022/07/25 01:58:56;;;;;;;6.88;5.95;;;;;;;27.68;51.23;100877.16;5036359;28;20053;-82
2022/07/25 02:01:24;;;;;;;6.05;5.50;;;;;;;27.68;51.14;100875.28;5036418;28;20049;-82
2022/07/25 02:03:51;;;;;;;6.82;6.07;;;;;;;27.69;51.18;100879.69;5036421;28;20497;-81
2022/07/25 02:06:19;;;;;;;6.93;6.22;;;;;;;27.70;51.47;100875.06;5034185;28;20049;-82
2022/07/25 02:08:47;;;;;;;6.32;5.72;;;;;;;27.71;51.24;100876.75;5034002;28;20227;-81
2022/07/25 02:11:14;;;;;;;5.63;5.13;;;;;;;27.71;51.04;100877.63;5035718;28;20049;-81
2022/07/25 02:13:41;;;;;;;6.78;6.10;;;;;;;27.72;51.23;100873.03;5035993;28;20049;-83
2022/07/25 02:16:09;;;;;;;6.05;5.45;;;;;;;27.73;51.14;100875.59;5034454;28;20046;-82
2022/07/25 02:18:36;;;;;;;7.60;6.00;;;;;;;27.73;51.21;100881.03;5035032;28;20057;-81
2022/07/25 02:21:09;;;;;;;6.97;6.38;;;;;;;27.75;51.31;100883.53;5035794;28;20048;-81
2022/07/25 02:23:42;;;;;;;7.00;6.40;;;;;;;27.75;51.67;100875.38;5034955;28;20050;-82
2022/07/25 02:26:10;;;;;;;6.80;6.13;;;;;;;27.75;51.42;100873.53;5035460;28;20504;-82
2022/07/25 02:28:38;;;;;;;6.57;5.97;;;;;;;27.75;51.73;100878.97;5036112;28;20056;-81
2022/07/25 02:31:06;;;;;;;6.55;6.00;;;;;;;27.77;51.93;100878.78;5035389;28;20060;-81
2022/07/25 02:33:33;;;;;;;6.88;6.18;;;;;;;27.78;52.27;100877.75;5034986;28;20044;-82
2022/07/25 02:36:01;;;;;;;6.82;6.15;;;;;;;27.77;52.60;100885.06;5035898;28;20461;-83
2022/07/25 02:38:28;;;;;;;7.95;7.15;;;;;;;27.77;53.23;100881.50;5035395;28;20045;-83
2022/07/25 02:40:55;;;;;;;7.60;6.88;;;;;;;27.75;53.98;100878.97;5033989;28;20049;-83
2022/07/25 02:43:23;;;;;;;7.68;6.82;;;;;;;27.76;53.89;100880.66;5035406;28;20048;-83
2022/07/25 02:45:51;;;;;;;7.35;6.65;;;;;;;27.75;54.08;100883.53;5035691;28;20056;-82
2022/07/25 02:48:19;;;;;;;8.23;7.43;;;;;;;27.74;53.85;100882.72;5034276;28;20049;-83
2022/07/25 02:50:46;;;;;;;10.50;6.85;;;;;;;27.75;53.51;100889.00;5035424;28;20046;-81
2022/07/25 02:53:13;;;;;;;8.45;7.03;;;;;;;27.75;53.65;100889.84;5035329;28;20067;-88
2022/07/25 02:55:50;;;;;;;7.22;6.63;;;;;;;27.75;53.56;100889.00;5034052;28;20049;-84
2022/07/25 02:58:19;;;;;;;7.93;7.22;;;;;;;27.75;53.94;100881.69;5033670;28;20053;-84
2022/07/25 03:00:46;;;;;;;7.68;6.97;;;;;;;27.76;53.29;100882.53;5035350;28;20053;-83
2022/07/25 03:03:14;;;;;;;8.35;7.50;;;;;;;27.77;53.49;100892.38;5017441;28;20061;-83
2022/07/25 03:05:41;;;;;;;8.10;7.30;;;;;;;27.77;53.23;100887.78;5035353;28;20052;-83
2022/07/25 03:08:08;;;;;;;7.45;6.75;;;;;;;27.78;53.33;100888.63;5034574;28;20042;-83
2022/07/25 03:10:36;;;;;;;8.68;7.88;;;;;;;27.79;54.17;100879.41;5034677;28;20049;-84
2022/07/25 03:13:03;;;;;;;7.90;7.20;;;;;;;27.80;53.70;100884.69;5034981;28;20077;-83
2022/07/25 03:15:31;;;;;;;8.00;7.30;;;;;;;27.80;54.52;100884.69;5033737;28;20056;-83
2022/07/25 03:17:58;;;;;;;8.70;7.78;;;;;;;27.79;54.19;100879.41;5033362;28;20104;-84
2022/07/25 03:20:26;;;;;;;8.80;7.95;;;;;;;27.79;54.71;100884.88;5033213;28;20049;-83
2022/07/25 03:22:53;;;;;;;8.98;8.18;;;;;;;27.80;54.61;100881.13;5034659;28;20085;-83
2022/07/25 03:25:21;;;;;;;9.40;7.90;;;;;;;27.80;54.44;100887.41;5033348;28;20049;-83
2022/07/25 03:27:49;;;;;;;8.10;7.40;;;;;;;27.81;54.79;100896.41;5034230;28;20053;-83
2022/07/25 03:30:16;;;;;;;8.15;7.45;;;;;;;27.80;54.66;100892.84;5032954;28;20056;-83
2022/07/25 03:32:43;;;;;;;8.73;7.88;;;;;;;27.81;54.92;100896.41;5032679;28;20057;-83
2022/07/25 03:35:11;;;;;;;8.52;7.72;;;;;;;27.81;54.83;100889.09;5034641;28;20045;-83
2022/07/25 03:37:38;;;;;;;8.02;7.22;;;;;;;27.81;54.98;100893.69;5034111;28;20413;-85
2022/07/25 03:40:06;;;;;;;7.70;7.00;;;;;;;27.81;54.78;100891.81;5034562;28;20053;-85
2022/07/25 03:42:33;;;;;;;8.88;7.80;;;;;;;27.81;54.84;100899.97;5033215;28;20046;-84
2022/07/25 03:45:02;;;;;;;8.57;7.68;;;;;;;27.81;55.00;100896.41;5033527;28;20049;-83
2022/07/25 03:47:29;;;;;;;8.85;7.95;;;;;;;27.81;55.47;100890.97;5034798;28;20045;-83
2022/07/25 03:49:57;;;;;;;9.23;8.50;;;;;;;27.82;55.16;100898.09;5034182;28;20050;-83
2022/07/25 03:52:24;;;;;;;9.23;8.38;;;;;;;27.82;55.44;100895.38;5033702;28;20470;-84
2022/07/25 03:54:52;;;;;;;9.25;8.10;;;;;;;27.82;55.11;100892.66;5032278;28;20049;-85
2022/07/25 03:57:19;;;;;;;8.88;7.78;;;;;;;27.83;55.34;100902.50;5034219;28;20053;-84
2022/07/25 03:59:47;;;;;;;7.93;7.20;;;;;;;27.82;55.42;100907.09;5033572;28;20506;-84
2022/07/25 04:02:14;;;;;;;9.18;8.30;;;;;;;27.82;55.38;100904.38;5033707;28;20089;-84
2022/07/25 04:04:41;;;;;;;9.13;8.32;;;;;;;27.83;55.10;100902.50;5033943;28;20512;-84
2022/07/25 04:07:09;;;;;;;9.50;8.70;;;;;;;27.84;55.15;100901.50;5034197;28;20056;-84
2022/07/25 04:09:36;;;;;;;8.55;7.50;;;;;;;27.84;55.06;100904.22;5033639;28;20428;-84
2022/07/25 04:12:04;;;;;;;10.95;8.18;;;;;;;27.82;54.96;100901.66;5034214;28;20053;-84
2022/07/25 04:14:31;;;;;;;9.90;8.85;;;;;;;27.83;55.47;100897.94;5033914;28;20512;-85
2022/07/25 04:16:59;;;;;;;8.85;8.05;;;;;;;27.84;55.31;100901.50;5033618;28;20045;-84
2022/07/25 04:19:26;;;;;;;9.15;8.20;;;;;;;27.84;55.24;100904.22;5033963;28;20045;-85
2022/07/25 04:21:55;;;;;;;9.60;8.35;;;;;;;27.83;55.24;100903.38;5033397;28;20056;-85
2022/07/25 04:24:22;;;;;;;9.65;8.75;;;;;;;27.84;55.34;100904.22;5033262;28;20042;-84
2022/07/25 04:26:49;;;;;;;9.63;8.63;;;;;;;27.85;54.93;100909.47;5032379;28;20053;-84
2022/07/25 04:29:17;;;;;;;7.82;6.95;;;;;;;27.87;55.15;100902.97;5033182;28;20060;-84
2022/07/25 04:31:44;;;;;;;9.55;8.68;;;;;;;27.87;55.38;100905.69;5033616;28;20056;-84
2022/07/25 04:34:12;;;;;;;10.35;8.65;;;;;;;27.88;54.99;100910.13;5033383;28;20044;-84
2022/07/25 04:36:39;;;;;;;10.77;9.60;;;;;;;27.88;55.19;100904.69;5032357;28;20050;-85
2022/07/25 04:39:06;;;;;;;10.98;8.70;;;;;;;27.89;54.72;100904.50;5033370;28;20053;-85
2022/07/25 04:41:34;;;;;;;10.15;9.05;;;;;;;27.90;55.28;100908.06;5032030;28;20049;-85
2022/07/25 04:44:01;;;;;;;10.65;9.52;;;;;;;27.90;55.07;100916.22;5033849;28;20042;-85
2022/07/25 04:46:29;;;;;;;9.38;8.57;;;;;;;27.91;55.01;100912.47;5032285;28;20060;-85
2022/07/25 04:48:56;;;;;;;9.25;8.45;;;;;;;27.91;54.65;100913.31;5033670;28;20054;-85
2022/07/25 04:51:24;;;;;;;10.25;8.70;;;;;;;27.92;54.37;100916.88;5032673;28;20060;-85
2022/07/25 04:53:51;;;;;;;10.20;9.40;;;;;;;27.92;54.88;100916.88;5033155;28;20060;-84
2022/07/25 04:56:18;;;;;;;9.18;8.38;;;;;;;27.92;54.81;100912.28;5032898;28;20493;-85
2022/07/25 04:58:46;;;;;;;9.52;8.63;;;;;;;27.92;54.75;100919.63;5033378;28;20048;-85
2022/07/25 05:01:13;;;;;;;10.60;9.27;;;;;;;27.93;55.01;100915.84;5033932;28;20397;-85
2022/07/25 05:03:42;;;;;;;10.55;9.65;;;;;;;27.92;54.60;100909.56;5032043;28;20045;-85
2022/07/25 05:06:18;;;;;;;11.30;9.10;;;;;;;27.94;54.79;100909.38;5033801;28;20496;-84
2022/07/25 05:08:46;;;;;;;10.30;9.48;;;;;;;27.94;54.71;100912.94;5033324;28;20508;-85
2022/07/25 05:11:13;;;;;;;11.60;9.02;;;;;;;27.95;54.83;100913.78;5032310;28;20041;-85
2022/07/25 05:13:40;;;;;;;10.38;9.25;;;;;;;27.95;54.71;100920.06;5014793;28;20049;-85
2022/07/25 05:16:08;;;;;;;10.02;9.02;;;;;;;27.96;54.57;100912.78;5032791;28;20037;-85
2022/07/25 05:18:35;;;;;;;9.80;8.85;;;;;;;27.97;54.47;100909.00;5031386;28;20501;-83
2022/07/25 05:21:03;;;;;;;10.20;8.35;;;;;;;27.96;54.69;100916.31;5032210;28;20049;-85
2022/07/25 05:23:30;;;;;;;9.82;9.02;;;;;;;27.97;54.58;100920.72;5031364;28;20049;-85
2022/07/25 05:25:57;;;;;;;10.20;9.27;;;;;;;27.98;54.31;100916.13;5033394;28;20072;-85
2022/07/25 05:28:24;;;;;;;9.98;8.80;;;;;;;27.99;54.20;100920.53;5031878;28;20046;-85
2022/07/25 05:30:52;;;;;;;10.32;9.32;;;;;;;27.98;54.56;100925.13;5032161;28;20057;-85
2022/07/25 05:33:19;;;;;;;10.52;9.52;;;;;;;27.99;55.41;100918.66;5031697;28;20049;-86
2022/07/25 05:35:46;;;;;;;10.27;9.20;;;;;;;28.00;54.72;100924.97;5032997;28;20405;-85
2022/07/25 05:38:14;;;;;;;11.10;9.98;;;;;;;28.00;55.10;100925.81;5031547;28;20046;-85
2022/07/25 05:40:41;;;;;;;11.10;10.10;;;;;;;28.00;55.32;100923.09;5031577;28;20050;-85
2022/07/25 05:43:09;;;;;;;9.77;8.75;;;;;;;28.01;54.88;100926.66;5034290;28;20049;-85
2022/07/25 05:45:36;;;;;;;10.27;9.27;;;;;;;28.01;54.61;100926.66;5035206;28;20046;-86
2022/07/25 05:48:03;;;;;;;10.30;9.27;;;;;;;28.03;54.80;100930.00;5034867;28;20064;-86
2022/07/25 05:50:31;;;;;;;9.30;8.38;;;;;;;28.02;54.61;100923.72;5035646;28;20050;-86
2022/07/25 05:52:58;;;;;;;8.90;8.00;;;;;;;28.03;55.03;100921.84;5034958;28;20061;-86
2022/07/25 05:55:25;;;;;;;10.43;9.32;;;;;;;28.02;54.76;100912.84;5036509;28;20048;-86
2022/07/25 05:57:53;;;;;;;10.65;9.57;;;;;;;28.04;54.87;100912.69;5034962;28;20048;-84
2022/07/25 06:00:20;;;;;;;10.77;9.43;;;;;;;28.04;54.90;100913.50;5034945;28;20072;-85
2022/07/25 06:02:48;;;;;;;10.65;9.55;;;;;;;28.05;54.87;100917.91;5034634;28;20041;-85
2022/07/25 06:05:15;;;;;;;10.43;9.43;;;;;;;28.06;54.79;100922.31;5034989;28;20045;-83
2022/07/25 06:07:43;;;;;;;10.50;9.60;;;;;;;28.06;54.60;100930.50;5035646;28;20393;-85
2022/07/25 06:10:10;;;;;;;10.63;9.45;;;;;;;28.07;55.03;100918.56;5036115;28;20052;-84
2022/07/25 06:12:37;;;;;;;10.95;9.82;;;;;;;28.08;54.79;100923.00;5036482;28;20049;-82
2022/07/25 06:15:07;;;;;;;11.23;10.13;;;;;;;28.09;54.71;100916.50;5027122;28;20042;-84
2022/07/25 06:17:48;;;;;;;13.13;10.68;;;;;;;28.09;55.17;100921.94;5016031;28;20056;-83
2022/07/25 06:20:16;;;;;;;11.98;10.45;;;;;;;28.11;55.59;100916.31;5016020;28;20057;-83
2022/07/25 06:22:43;;;;;;;13.65;10.77;;;;;;;28.13;55.22;100916.97;5020249;28;20056;-84
2022/07/25 06:25:11;;;;;;;13.10;10.73;;;;;;;28.13;55.22;100910.69;5034924;28;20054;-85
2022/07/25 06:27:38;;;;;;;12.50;10.90;;;;;;;28.13;55.48;100914.25;5035394;28;20379;-85
2022/07/25 06:30:08;;;;;;;12.30;11.07;;;;;;;28.15;55.38;100908.63;5035752;28;20053;-81
2022/07/25 06:32:47;;;;;;;14.27;12.93;;;;;;;28.14;55.81;100915.09;5034544;28;20053;-86
2022/07/25 06:35:16;;;;;;;15.77;14.27;;;;;;;28.12;56.47;100911.75;5017358;28;20061;-83
2022/07/25 06:37:44;;;;;;;14.45;13.05;;;;;;;28.09;56.56;100915.66;5035092;28;20041;-84
2022/07/25 06:40:11;;;;;;;14.82;13.07;;;;;;;28.08;56.35;100914.81;5034152;28;20064;-84
2022/07/25 06:42:40;;;;;;;14.98;13.43;;;;;;;28.07;56.30;100915.84;5035980;28;20046;-81
2022/07/25 06:45:10;;;;;;;14.75;13.23;;;;;;;28.07;56.31;100910.41;5035573;28;20045;-87
2022/07/25 06:47:39;;;;;;;15.98;12.90;;;;;;;28.08;56.25;100912.09;5018262;28;20053;-82
2022/07/25 06:50:08;;;;;;;13.95;12.60;;;;;;;28.08;56.64;100919.44;5036230;28;20046;-81
2022/07/25 06:52:38;;;;;;;15.23;13.73;;;;;;;28.08;56.58;100912.09;5035966;28;20045;-81
2022/07/25 06:55:08;;;;;;;13.50;12.10;;;;;;;28.07;56.45;100898.66;5036074;28;20052;-82
2022/07/25 06:57:36;;;;;;;12.63;11.50;;;;;;;28.09;56.47;100913.78;5035080;28;20049;-81
2022/07/25 07:00:08;;;;;;;12.52;11.32;;;;;;;28.09;56.44;100904.78;5035421;28;20049;-80
2022/07/25 07:02:57;;;;;;;13.10;11.35;;;;;;;28.09;56.11;100908.34;5035746;28;20053;-82
2022/07/25 07:05:27;;;;;;;15.20;12.00;;;;;;;28.12;56.40;100906.28;5036062;28;20049;-82
2022/07/25 07:07:55;;;;;;;13.40;11.90;;;;;;;28.13;56.44;100907.97;5033939;28;20053;-82
2022/07/25 07:10:23;;;;;;;13.90;11.80;;;;;;;28.12;56.43;100906.28;5036237;28;20046;-82
2022/07/25 07:13:10;;;;;;;13.20;11.88;;;;;;;28.16;56.32;100904.88;5018051;28;20516;-81
2022/07/25 07:15:42;;;;;;;14.98;12.55;;;;;;;28.16;56.95;100902.16;5029779;28;20046;-81
2022/07/25 07:18:10;;;;;;;14.40;13.00;;;;;;;28.16;56.73;100902.16;5036475;28;20042;-82
2022/07/25 07:20:37;;;;;;;14.65;11.80;;;;;;;28.17;56.56;100903.84;5034760;28;20052;-82
2022/07/25 07:23:05;;;;;;;13.98;11.65;;;;;;;28.18;56.20;100903.66;5034746;28;20045;-80
2022/07/25 07:25:32;;;;;;;12.43;10.90;;;;;;;28.21;55.97;100910.59;5033553;28;20060;-84
2022/07/25 07:28:00;;;;;;;13.70;12.30;;;;;;;28.22;56.69;100904.94;5016791;28;20531;-83
2022/07/25 07:30:28;;;;;;;14.20;12.05;;;;;;;28.23;57.31;100898.47;5034239;28;20053;-83
2022/07/25 07:33:15;;;;;;;14.27;12.82;;;;;;;28.25;57.57;100901.03;5033234;28;20064;-82
2022/07/25 07:35:44;;;;;;;16.40;12.77;;;;;;;28.25;57.60;100890.97;5034455;28;20048;-83
2022/07/25 07:38:11;;;;;;;14.48;13.02;;;;;;;28.25;57.19;100887.41;5034278;28;20076;-83
2022/07/25 07:40:38;;;;;;;14.15;12.75;;;;;;;28.28;57.57;100889.75;5034319;28;20053;-83
2022/07/25 07:43:06;;;;;;;14.30;12.88;;;;;;;28.27;57.21;100885.31;5033066;28;20060;-82
2022/07/25 07:45:34;;;;;;;13.77;11.95;;;;;;;28.29;57.24;100886.00;5034208;28;20496;-83
2022/07/25 07:48:02;;;;;;;16.13;12.65;;;;;;;28.30;57.10;100882.22;5033889;28;20045;-83
2022/07/25 07:50:29;;;;;;;14.18;12.88;;;;;;;28.31;57.41;100882.03;5033507;28;20045;-85
2022/07/25 07:52:57;;;;;;;14.52;13.15;;;;;;;28.32;57.54;100881.03;5034775;28;20112;-83
2022/07/25 07:55:44;;;;;;;15.25;13.75;;;;;;;28.33;57.90;100879.13;5033399;28;20052;-84
2022/07/25 07:58:16;;;;;;;14.65;13.23;;;;;;;28.34;57.88;100886.25;5032776;28;20061;-81
2022/07/25 08:00:46;;;;;;;14.60;13.30;;;;;;;28.35;58.15;100877.88;5028881;28;20057;-86
2022/07/25 08:03:18;;;;;;;13.00;11.70;;;;;;;28.36;57.33;100878.78;5018164;28;20050;-84
2022/07/25 08:05:48;;;;;;;16.17;13.60;;;;;;;28.38;57.93;100876.72;5013436;28;20046;-81
2022/07/25 08:08:15;;;;;;;14.40;12.98;;;;;;;28.38;57.74;100879.44;5013523;28;20057;-80
2022/07/25 08:10:45;;;;;;;14.30;12.80;;;;;;;28.39;57.95;100878.38;5014626;28;20056;-87
2022/07/25 08:13:21;;;;;;;14.82;13.43;;;;;;;28.40;58.06;100877.38;5014903;28;20055;-85
2022/07/25 08:15:56;;;;;;;14.90;13.35;;;;;;;28.42;58.15;100879.91;5014384;28;20108;-80
2022/07/25 08:18:31;;;;;;;16.42;12.73;;;;;;;28.42;57.52;100882.63;5013305;28;20057;-82
2022/07/25 08:21:02;;;;;;;16.27;13.23;;;;;;;28.42;57.59;100885.34;5014916;28;20052;-80
2022/07/25 08:23:30;;;;;;;14.55;12.93;;;;;;;28.44;57.22;100888.69;5028394;28;20050;-81
2022/07/25 08:25:58;;;;;;;13.60;12.27;;;;;;;28.44;57.25;100877.81;5013897;28;20054;-85
2022/07/25 08:28:25;;;;;;;14.68;12.32;;;;;;;28.45;56.84;100877.63;5028978;28;20061;-84
2022/07/25 08:30:53;;;;;;;15.60;12.10;;;;;;;28.46;56.44;100887.50;5014862;28;20394;-84
2022/07/25 08:33:21;;;;;;;13.15;11.98;;;;;;;28.47;56.58;100886.44;5028554;28;20045;-84
2022/07/25 08:35:52;;;;;;;13.30;11.95;;;;;;;28.48;56.51;100879.13;5012549;28;20501;-84
2022/07/25 08:38:22;;;;;;;13.30;11.93;;;;;;;28.49;56.32;100881.66;5012615;28;20046;-83
2022/07/25 08:40:50;;;;;;;12.73;11.57;;;;;;;28.50;55.66;100877.91;5014748;28;20061;-83
2022/07/25 08:43:18;;;;;;;12.57;11.50;;;;;;;28.52;55.85;100880.41;5013309;28;20053;-86
2022/07/25 08:45:48;;;;;;;13.10;11.73;;;;;;;28.51;55.72;100874.13;5013605;28;20045;-86
2022/07/25 08:48:18;;;;;;;12.93;11.63;;;;;;;28.52;55.84;100878.56;5012630;28;20049;-82
2022/07/25 08:50:46;;;;;;;12.88;11.70;;;;;;;28.53;56.13;100869.34;5013424;28;20042;-83
2022/07/25 08:53:17;;;;;;;12.77;11.48;;;;;;;28.56;55.64;100876.28;5013644;28;20400;-86
2022/07/25 08:56:06;;;;;;;12.30;11.10;;;;;;;28.57;56.04;100872.53;5011964;28;20053;-80
2022/07/25 08:58:45;;;;;;;13.48;12.02;;;;;;;28.57;55.78;100870.66;4997519;28;20057;-81
2022/07/25 09:01:20;;;;;;;14.38;11.50;;;;;;;28.56;56.00;100868.97;5013083;28;20528;-81
2022/07/25 09:03:47;;;;;;;13.23;11.73;;;;;;;28.58;55.90;100864.16;5015884;28;20045;-84
2022/07/25 09:06:20;;;;;;;12.43;11.05;;;;;;;28.62;55.76;100869.25;5032233;28;20061;-83
2022/07/25 09:08:51;;;;;;;;;;;;;;;28.61;55.61;100873.00;5034875;28;20049;-81
2022/07/25 09:11:34;;;;;;;12.82;11.52;;;;;;;28.62;55.65;100863.78;5033033;28;20398;-81
2022/07/25 09:14:09;;;;;;;11.85;10.65;;;;;;;28.63;55.50;100865.47;5033800;28;20109;-80
2022/07/25 09:16:42;;;;;;;11.68;10.57;;;;;;;28.63;55.23;100865.47;5034130;28;20049;-84
2022/07/25 09:19:12;;;;;;;13.07;11.77;;;;;;;28.64;55.14;100864.44;5037672;28;20056;-85
2022/07/25 09:21:41;;;;;;;11.48;10.38;;;;;;;28.65;54.96;100857.97;5037726;28;20058;-80
2022/07/25 09:24:14;;;;;;;11.73;10.52;;;;;;;28.66;55.54;100855.03;5039179;28;20382;-80
2022/07/25 09:26:49;;;;;;;11.75;10.60;;;;;;;28.66;54.86;100855.03;5036249;28;20045;-83
2022/07/25 09:29:24;;;;;;;11.32;10.43;;;;;;;28.66;55.07;100848.75;5037707;28;20049;-84
2022/07/25 09:31:54;;;;;;;12.55;10.82;;;;;;;28.68;55.21;100847.50;5037835;28;20049;-82
2022/07/25 09:34:49;;;;;;;14.65;11.38;;;;;;;28.69;55.39;100838.31;5035748;28;20046;-81
2022/07/25 09:37:19;;;;;;;11.15;10.00;;;;;;;28.70;55.08;100840.00;5035547;28;20053;-88
2022/07/25 09:39:49;;;;;;;12.05;10.38;;;;;;;28.70;54.83;100834.53;5036969;28;20056;-84
2022/07/25 09:42:35;;;;;;;10.75;9.80;;;;;;;28.72;54.60;100837.06;5036483;28;20401;-83
2022/07/25 09:45:12;;;;;;;12.77;11.48;;;;;;;28.71;54.73;100836.22;5019097;28;20076;-82
2022/07/25 09:47:54;;;;;;;11.68;10.50;;;;;;;28.73;54.65;100833.31;5036096;28;20041;-84
2022/07/25 09:50:24;;;;;;;13.40;12.20;;;;;;;28.72;54.74;100832.44;5036717;28;20049;-82
2022/07/25 09:52:53;;;;;;;12.32;11.07;;;;;;;28.73;54.35;100830.59;5035469;28;20058;-83
2022/07/25 09:55:21;;;;;;;11.98;10.73;;;;;;;28.74;54.20;100818.66;5036283;28;20042;-86
2022/07/25 09:57:51;;;;;;;12.27;11.27;;;;;;;28.74;54.68;100824.09;5018773;28;20137;-81
2022/07/25 10:00:22;;;;;;;10.38;9.50;;;;;;;28.74;54.49;100813.22;5034999;28;20056;-82
2022/07/25 10:03:27;;;;;;;11.90;10.77;;;;;;;28.75;54.11;100817.59;5036625;28;20053;-81
2022/07/25 10:06:07;;;;;;;11.80;10.60;;;;;;;28.74;54.27;100807.75;5036504;28;20049;-83
2022/07/25 10:08:40;;;;;;;11.35;10.43;;;;;;;28.75;54.09;100814.88;5036254;28;20528;-82
2022/07/25 10:11:22;;;;;;;12.10;10.20;;;;;;;28.77;53.95;100807.38;5036375;28;20112;-84
2022/07/25 10:13:50;;;;;;;10.90;10.00;;;;;;;28.77;53.75;100812.81;5035307;28;20053;-82
2022/07/25 10:16:26;;;;;;;10.63;9.63;;;;;;;28.78;53.73;100814.50;5035091;28;20045;-85
2022/07/25 10:18:56;;;;;;;10.50;9.60;;;;;;;28.79;53.75;100802.56;5034348;28;20061;-81
2022/07/25 10:21:25;;;;;;;10.88;9.80;;;;;;;28.80;53.79;100796.06;5035939;28;20056;-85
2022/07/25 10:24:03;;;;;;;10.48;9.45;;;;;;;28.81;53.55;100797.78;5034364;28;20064;-84
2022/07/25 10:26:34;;;;;;;10.90;9.85;;;;;;;28.80;53.62;100798.78;5036057;28;20041;-82
2022/07/25 10:29:10;;;;;;;10.07;9.07;;;;;;;28.82;53.73;100794.00;5035718;28;20049;-85
2022/07/25 10:31:43;;;;;;;10.23;9.27;;;;;;;28.80;53.07;100788.75;5036131;28;20108;-82
2022/07/25 10:34:29;;;;;;;10.65;9.65;;;;;;;28.81;53.45;100790.44;5036470;28;20061;-84
2022/07/25 10:37:09;;;;;;;11.05;9.75;;;;;;;28.83;52.95;100784.78;5034418;28;20044;-82
2022/07/25 10:39:38;;;;;;;10.52;9.48;;;;;;;28.83;53.12;100773.88;5035975;28;20076;-84
2022/07/25 10:42:06;;;;;;;10.73;9.63;;;;;;;28.85;53.29;100779.16;5036002;28;20058;-85
2022/07/25 10:44:45;;;;;;;10.25;9.27;;;;;;;28.84;52.95;100775.56;5035795;28;20042;-86
2022/07/25 10:47:14;;;;;;;9.98;8.82;;;;;;;28.84;53.08;100770.09;5031585;28;20045;-83
2022/07/25 10:49:44;;;;;;;10.35;9.30;;;;;;;28.85;52.61;100769.09;5004464;28;20049;-87
2022/07/25 10:52:40;;;;;;;10.43;9.27;;;;;;;28.85;52.54;100758.19;5030333;28;20064;-90
2022/07/25 10:55:07;;;;;;;9.90;8.93;;;;;;;28.88;52.50;100762.38;5015112;28;20053;-81
2022/07/25 10:57:35;;;;;;;10.07;9.18;;;;;;;28.87;52.37;100756.09;4998062;28;20062;-82
2022/07/25 11:00:21;;;;;;;10.10;9.20;;;;;;;28.88;52.27;100757.78;5014969;28;20042;-83
2022/07/25 11:02:49;;;;;;;10.05;8.65;;;;;;;28.89;52.60;100755.91;5014368;28;20057;-83
2022/07/25 11:05:16;;;;;;;8.73;7.88;;;;;;;28.89;52.62;100753.19;5015358;28;20077;-84
2022/07/25 11:07:51;;;;;;;10.30;8.70;;;;;;;28.89;52.66;100751.31;5013727;28;20592;-80
2022/07/25 11:10:39;;;;;;;9.90;9.02;;;;;;;28.90;52.19;100743.97;5015656;28;20050;-83
2022/07/25 11:13:13;;;;;;;9.90;8.48;;;;;;;28.90;52.36;100742.09;5015198;28;20038;-78
2022/07/25 11:15:41;;;;;;;9.48;8.57;;;;;;;28.91;52.35;100743.75;5014663;28;20057;-79
2022/07/25 11:18:08;;;;;;;11.70;9.23;;;;;;;28.91;52.20;100727.41;5014429;28;20057;-81
2022/07/25 11:20:36;;;;;;;9.55;8.65;;;;;;;28.92;52.29;100729.09;5014349;28;20042;-81
2022/07/25 11:23:03;;;;;;;12.30;9.32;;;;;;;28.93;52.32;100736.25;5014685;28;20050;-80
2022/07/25 11:25:31;;;;;;;9.50;8.60;;;;;;;28.93;52.12;100730.81;5015104;28;20053;-80
2022/07/25 11:27:59;;;;;;;9.30;8.30;;;;;;;28.94;52.42;100723.47;5013356;28;20042;-80
2022/07/25 11:30:28;;;;;;;9.40;8.60;;;;;;;28.94;51.96;100727.03;5013401;28;20053;-80